sensor_id;sensor_type;location;lat;lon;timestamp;P1;durP1;ratioP1;P2;durP2;ratioP2
21030;SDS011;61072;47.808;7.636;2023-03-01T00:01:12;24.10;;;14.52;;
21030;SDS011;61072;47.808;7.636;2023-03-01T00:03:43;23.80;;;15.38;;
21030;SDS011;61072;47.808;7.636;2023-03-01T00:06:10;29.27;;;14.43;;
21030;SDS011;61072;47.808;7.636;2023-03-01T00:08:38;23.30;;;14.73;;
21030;SDS011;61072;47.808;7.636;2023-03-01T00:13:53;23.73;;;15.45;;
21030;SDS011;61072;47.808;7.636;2023-03-01T00:16:26;23.33;;;14.13;;
21030;SDS011;61072;47.808;7.636;2023-03-01T00:18:55;21.65;;;13.50;;
21030;SDS011;61072;47.808;7.636;2023-03-01T00:21:23;23.35;;;14.55;;
21030;SDS011;61072;47.808;7.636;2023-03-01T00:23:51;24.23;;;15.07;;
21030;SDS011;61072;47.808;7.636;2023-03-01T00:26:19;20.42;;;14.02;;
21030;SDS011;61072;47.808;7.636;2023-03-01T00:28:47;26.48;;;14.57;;
21030;SDS011;61072;47.808;7.636;2023-03-01T00:31:15;21.20;;;13.30;;
21030;SDS011;61072;47.808;7.636;2023-03-01T00:33:44;24.38;;;15.57;;
21030;SDS011;61072;47.808;7.636;2023-03-01T00:36:11;23.95;;;15.10;;
21030;SDS011;61072;47.808;7.636;2023-03-01T00:38:40;22.42;;;14.25;;
21030;SDS011;61072;47.808;7.636;2023-03-01T00:41:10;21.02;;;14.75;;
21030;SDS011;61072;47.808;7.636;2023-03-01T00:43:38;20.92;;;13.23;;
21030;SDS011;61072;47.808;7.636;2023-03-01T00:46:09;23.80;;;14.40;;
21030;SDS011;61072;47.808;7.636;2023-03-01T00:48:41;22.80;;;14.52;;
21030;SDS011;61072;47.808;7.636;2023-03-01T00:51:12;22.55;;;15.00;;
21030;SDS011;61072;47.808;7.636;2023-03-01T00:53:43;21.25;;;13.50;;
21030;SDS011;61072;47.808;7.636;2023-03-01T00:56:12;22.80;;;14.63;;
21030;SDS011;61072;47.808;7.636;2023-03-01T00:58:40;23.83;;;15.23;;
21030;SDS011;61072;47.808;7.636;2023-03-01T01:01:08;25.95;;;14.80;;
21030;SDS011;61072;47.808;7.636;2023-03-01T01:03:47;25.10;;;15.98;;
21030;SDS011;61072;47.808;7.636;2023-03-01T01:06:19;23.42;;;14.75;;
21030;SDS011;61072;47.808;7.636;2023-03-01T01:08:48;22.95;;;14.70;;
21030;SDS011;61072;47.808;7.636;2023-03-01T01:11:16;21.88;;;14.93;;
21030;SDS011;61072;47.808;7.636;2023-03-01T01:13:44;22.65;;;14.63;;
21030;SDS011;61072;47.808;7.636;2023-03-01T01:16:13;22.05;;;14.18;;
21030;SDS011;61072;47.808;7.636;2023-03-01T01:18:41;24.08;;;14.05;;
21030;SDS011;61072;47.808;7.636;2023-03-01T01:21:09;23.27;;;13.80;;
21030;SDS011;61072;47.808;7.636;2023-03-01T01:23:38;23.75;;;14.73;;
21030;SDS011;61072;47.808;7.636;2023-03-01T01:26:07;20.27;;;13.80;;
21030;SDS011;61072;47.808;7.636;2023-03-01T01:28:35;22.85;;;14.70;;
21030;SDS011;61072;47.808;7.636;2023-03-01T01:31:03;24.45;;;14.82;;
21030;SDS011;61072;47.808;7.636;2023-03-01T01:33:30;22.92;;;14.07;;
21030;SDS011;61072;47.808;7.636;2023-03-01T01:35:57;22.95;;;14.07;;
21030;SDS011;61072;47.808;7.636;2023-03-01T01:38:24;20.67;;;13.60;;
21030;SDS011;61072;47.808;7.636;2023-03-01T01:40:51;22.70;;;13.68;;
21030;SDS011;61072;47.808;7.636;2023-03-01T01:43:19;21.92;;;13.35;;
21030;SDS011;61072;47.808;7.636;2023-03-01T01:45:53;23.45;;;13.40;;
21030;SDS011;61072;47.808;7.636;2023-03-01T01:48:39;22.00;;;13.98;;
21030;SDS011;61072;47.808;7.636;2023-03-01T01:51:13;22.30;;;13.07;;
21030;SDS011;61072;47.808;7.636;2023-03-01T01:53:44;21.20;;;14.30;;
21030;SDS011;61072;47.808;7.636;2023-03-01T01:56:14;24.80;;;14.25;;
21030;SDS011;61072;47.808;7.636;2023-03-01T01:58:43;21.27;;;13.20;;
21030;SDS011;61072;47.808;7.636;2023-03-01T02:01:11;24.50;;;15.40;;
21030;SDS011;61072;47.808;7.636;2023-03-01T02:03:38;23.02;;;14.15;;
21030;SDS011;61072;47.808;7.636;2023-03-01T02:06:13;26.85;;;15.15;;
21030;SDS011;61072;47.808;7.636;2023-03-01T02:08:45;19.75;;;12.68;;
21030;SDS011;61072;47.808;7.636;2023-03-01T02:11:14;22.02;;;14.35;;
21030;SDS011;61072;47.808;7.636;2023-03-01T02:13:43;26.30;;;14.93;;
21030;SDS011;61072;47.808;7.636;2023-03-01T02:16:13;23.88;;;13.88;;
21030;SDS011;61072;47.808;7.636;2023-03-01T02:18:41;25.70;;;14.23;;
21030;SDS011;61072;47.808;7.636;2023-03-01T02:23:54;22.77;;;13.93;;
21030;SDS011;61072;47.808;7.636;2023-03-01T02:26:36;25.35;;;14.95;;
21030;SDS011;61072;47.808;7.636;2023-03-01T02:29:08;21.60;;;14.15;;
21030;SDS011;61072;47.808;7.636;2023-03-01T02:31:35;23.63;;;13.88;;
21030;SDS011;61072;47.808;7.636;2023-03-01T02:34:09;24.77;;;15.38;;
21030;SDS011;61072;47.808;7.636;2023-03-01T02:36:40;21.85;;;13.93;;
21030;SDS011;61072;47.808;7.636;2023-03-01T02:39:15;23.25;;;14.38;;
21030;SDS011;61072;47.808;7.636;2023-03-01T02:41:47;24.23;;;15.20;;
21030;SDS011;61072;47.808;7.636;2023-03-01T02:44:17;20.60;;;13.52;;
21030;SDS011;61072;47.808;7.636;2023-03-01T02:46:46;24.13;;;13.77;;
21030;SDS011;61072;47.808;7.636;2023-03-01T02:49:22;23.15;;;13.82;;
21030;SDS011;61072;47.808;7.636;2023-03-01T02:54:26;24.55;;;14.13;;
21030;SDS011;61072;47.808;7.636;2023-03-01T02:57:08;23.95;;;14.48;;
21030;SDS011;61072;47.808;7.636;2023-03-01T02:59:35;22.23;;;14.00;;
21030;SDS011;61072;47.808;7.636;2023-03-01T03:02:19;24.17;;;13.60;;
21030;SDS011;61072;47.808;7.636;2023-03-01T03:05:05;22.08;;;13.65;;
21030;SDS011;61072;47.808;7.636;2023-03-01T03:07:39;23.40;;;14.18;;
21030;SDS011;61072;47.808;7.636;2023-03-01T03:10:09;20.95;;;14.43;;
21030;SDS011;61072;47.808;7.636;2023-03-01T03:12:49;20.90;;;13.52;;
21030;SDS011;61072;47.808;7.636;2023-03-01T03:15:17;25.05;;;14.75;;
21030;SDS011;61072;47.808;7.636;2023-03-01T03:17:44;23.17;;;13.50;;
21030;SDS011;61072;47.808;7.636;2023-03-01T03:20:12;21.40;;;14.07;;
21030;SDS011;61072;47.808;7.636;2023-03-01T03:22:46;23.13;;;14.15;;
21030;SDS011;61072;47.808;7.636;2023-03-01T03:25:14;23.98;;;13.95;;
21030;SDS011;61072;47.808;7.636;2023-03-01T03:27:42;25.52;;;14.38;;
21030;SDS011;61072;47.808;7.636;2023-03-01T03:30:12;20.35;;;12.65;;
21030;SDS011;61072;47.808;7.636;2023-03-01T03:32:44;22.48;;;13.68;;
21030;SDS011;61072;47.808;7.636;2023-03-01T03:35:19;23.73;;;13.85;;
21030;SDS011;61072;47.808;7.636;2023-03-01T03:37:47;25.42;;;14.68;;
21030;SDS011;61072;47.808;7.636;2023-03-01T03:40:36;21.88;;;14.07;;
21030;SDS011;61072;47.808;7.636;2023-03-01T03:43:11;22.92;;;14.15;;
21030;SDS011;61072;47.808;7.636;2023-03-01T03:45:39;22.70;;;13.95;;
21030;SDS011;61072;47.808;7.636;2023-03-01T03:48:07;25.20;;;14.73;;
21030;SDS011;61072;47.808;7.636;2023-03-01T03:50:38;23.55;;;14.13;;
21030;SDS011;61072;47.808;7.636;2023-03-01T03:53:08;23.00;;;13.50;;
21030;SDS011;61072;47.808;7.636;2023-03-01T03:55:36;20.98;;;13.75;;
21030;SDS011;61072;47.808;7.636;2023-03-01T03:58:08;23.73;;;13.13;;
21030;SDS011;61072;47.808;7.636;2023-03-01T04:00:37;25.65;;;14.35;;
21030;SDS011;61072;47.808;7.636;2023-03-01T04:03:06;21.92;;;13.30;;
21030;SDS011;61072;47.808;7.636;2023-03-01T04:05:33;26.88;;;13.55;;
21030;SDS011;61072;47.808;7.636;2023-03-01T04:08:01;25.35;;;14.65;;
21030;SDS011;61072;47.808;7.636;2023-03-01T04:10:29;22.73;;;13.35;;
21030;SDS011;61072;47.808;7.636;2023-03-01T04:12:58;23.02;;;13.25;;
21030;SDS011;61072;47.808;7.636;2023-03-01T04:15:25;30.52;;;13.93;;
21030;SDS011;61072;47.808;7.636;2023-03-01T04:17:53;23.33;;;14.35;;
21030;SDS011;61072;47.808;7.636;2023-03-01T04:20:23;23.27;;;14.10;;
21030;SDS011;61072;47.808;7.636;2023-03-01T04:22:55;23.13;;;13.68;;
21030;SDS011;61072;47.808;7.636;2023-03-01T04:25:23;24.98;;;14.40;;
21030;SDS011;61072;47.808;7.636;2023-03-01T04:27:50;21.70;;;14.13;;
21030;SDS011;61072;47.808;7.636;2023-03-01T04:30:17;20.08;;;13.18;;
21030;SDS011;61072;47.808;7.636;2023-03-01T04:32:43;24.30;;;14.07;;
21030;SDS011;61072;47.808;7.636;2023-03-01T04:35:10;24.65;;;14.85;;
21030;SDS011;61072;47.808;7.636;2023-03-01T04:37:37;25.90;;;15.20;;
21030;SDS011;61072;47.808;7.636;2023-03-01T04:40:03;21.58;;;14.27;;
21030;SDS011;61072;47.808;7.636;2023-03-01T04:42:42;25.02;;;14.50;;
21030;SDS011;61072;47.808;7.636;2023-03-01T04:45:09;25.70;;;15.55;;
21030;SDS011;61072;47.808;7.636;2023-03-01T04:47:40;21.38;;;14.27;;
21030;SDS011;61072;47.808;7.636;2023-03-01T04:50:07;25.20;;;14.15;;
21030;SDS011;61072;47.808;7.636;2023-03-01T04:52:35;23.02;;;13.82;;
21030;SDS011;61072;47.808;7.636;2023-03-01T04:55:02;25.80;;;15.23;;
21030;SDS011;61072;47.808;7.636;2023-03-01T04:57:29;26.60;;;15.02;;
21030;SDS011;61072;47.808;7.636;2023-03-01T04:59:57;25.95;;;15.48;;
21030;SDS011;61072;47.808;7.636;2023-03-01T05:02:24;25.70;;;15.15;;
21030;SDS011;61072;47.808;7.636;2023-03-01T05:04:50;25.45;;;14.85;;
21030;SDS011;61072;47.808;7.636;2023-03-01T05:07:17;21.75;;;14.40;;
21030;SDS011;61072;47.808;7.636;2023-03-01T05:09:45;25.58;;;15.00;;
21030;SDS011;61072;47.808;7.636;2023-03-01T05:12:13;24.05;;;15.18;;
21030;SDS011;61072;47.808;7.636;2023-03-01T05:14:40;25.60;;;15.63;;
21030;SDS011;61072;47.808;7.636;2023-03-01T05:17:07;24.25;;;14.20;;
21030;SDS011;61072;47.808;7.636;2023-03-01T05:19:34;26.10;;;15.50;;
21030;SDS011;61072;47.808;7.636;2023-03-01T05:22:01;27.05;;;16.08;;
21030;SDS011;61072;47.808;7.636;2023-03-01T05:24:28;22.30;;;14.98;;
21030;SDS011;61072;47.808;7.636;2023-03-01T05:26:55;28.65;;;15.55;;
21030;SDS011;61072;47.808;7.636;2023-03-01T05:29:22;28.08;;;15.02;;
21030;SDS011;61072;47.808;7.636;2023-03-01T05:31:57;23.90;;;15.52;;
21030;SDS011;61072;47.808;7.636;2023-03-01T05:34:26;25.88;;;14.18;;
21030;SDS011;61072;47.808;7.636;2023-03-01T05:36:54;27.60;;;16.40;;
21030;SDS011;61072;47.808;7.636;2023-03-01T05:39:21;29.38;;;15.93;;
21030;SDS011;61072;47.808;7.636;2023-03-01T05:41:56;30.55;;;16.88;;
21030;SDS011;61072;47.808;7.636;2023-03-01T05:44:25;22.92;;;14.60;;
21030;SDS011;61072;47.808;7.636;2023-03-01T05:46:52;26.23;;;16.42;;
21030;SDS011;61072;47.808;7.636;2023-03-01T05:49:19;27.05;;;16.17;;
21030;SDS011;61072;47.808;7.636;2023-03-01T05:51:51;28.70;;;16.58;;
21030;SDS011;61072;47.808;7.636;2023-03-01T05:54:20;27.15;;;17.30;;
21030;SDS011;61072;47.808;7.636;2023-03-01T05:56:47;31.73;;;17.63;;
21030;SDS011;61072;47.808;7.636;2023-03-01T05:59:14;29.42;;;16.23;;
21030;SDS011;61072;47.808;7.636;2023-03-01T06:01:42;27.52;;;16.08;;
21030;SDS011;61072;47.808;7.636;2023-03-01T06:04:09;33.95;;;17.17;;
21030;SDS011;61072;47.808;7.636;2023-03-01T06:06:37;29.73;;;17.02;;
21030;SDS011;61072;47.808;7.636;2023-03-01T06:09:04;32.78;;;16.55;;
21030;SDS011;61072;47.808;7.636;2023-03-01T06:11:33;28.65;;;16.13;;
21030;SDS011;61072;47.808;7.636;2023-03-01T06:14:01;29.83;;;16.65;;
21030;SDS011;61072;47.808;7.636;2023-03-01T06:16:28;32.70;;;16.83;;
21030;SDS011;61072;47.808;7.636;2023-03-01T06:18:55;27.13;;;18.02;;
21030;SDS011;61072;47.808;7.636;2023-03-01T06:21:22;26.85;;;15.65;;
21030;SDS011;61072;47.808;7.636;2023-03-01T06:23:48;25.45;;;16.23;;
21030;SDS011;61072;47.808;7.636;2023-03-01T06:26:15;27.70;;;16.60;;
21030;SDS011;61072;47.808;7.636;2023-03-01T06:28:42;30.13;;;16.17;;
21030;SDS011;61072;47.808;7.636;2023-03-01T06:31:12;36.70;;;20.02;;
21030;SDS011;61072;47.808;7.636;2023-03-01T06:33:39;49.92;;;25.13;;
21030;SDS011;61072;47.808;7.636;2023-03-01T06:36:06;37.42;;;20.75;;
21030;SDS011;61072;47.808;7.636;2023-03-01T06:38:33;34.90;;;20.70;;
21030;SDS011;61072;47.808;7.636;2023-03-01T06:41:00;36.00;;;20.17;;
21030;SDS011;61072;47.808;7.636;2023-03-01T06:43:27;33.20;;;19.20;;
21030;SDS011;61072;47.808;7.636;2023-03-01T06:45:55;29.52;;;16.83;;
21030;SDS011;61072;47.808;7.636;2023-03-01T06:48:21;33.42;;;18.15;;
21030;SDS011;61072;47.808;7.636;2023-03-01T06:50:48;37.95;;;20.85;;
21030;SDS011;61072;47.808;7.636;2023-03-01T06:53:15;37.90;;;21.15;;
21030;SDS011;61072;47.808;7.636;2023-03-01T06:55:42;35.05;;;19.58;;
21030;SDS011;61072;47.808;7.636;2023-03-01T06:58:09;34.00;;;19.15;;
21030;SDS011;61072;47.808;7.636;2023-03-01T07:00:36;36.60;;;19.17;;
21030;SDS011;61072;47.808;7.636;2023-03-01T07:03:03;28.60;;;17.40;;
21030;SDS011;61072;47.808;7.636;2023-03-01T07:05:29;38.28;;;19.08;;
21030;SDS011;61072;47.808;7.636;2023-03-01T07:07:56;37.88;;;21.75;;
21030;SDS011;61072;47.808;7.636;2023-03-01T07:10:23;36.17;;;20.35;;
21030;SDS011;61072;47.808;7.636;2023-03-01T07:12:53;39.55;;;22.27;;
21030;SDS011;61072;47.808;7.636;2023-03-01T07:15:21;41.65;;;21.88;;
21030;SDS011;61072;47.808;7.636;2023-03-01T07:17:48;32.03;;;21.08;;
21030;SDS011;61072;47.808;7.636;2023-03-01T07:20:17;31.90;;;20.77;;
21030;SDS011;61072;47.808;7.636;2023-03-01T07:22:45;30.90;;;20.00;;
21030;SDS011;61072;47.808;7.636;2023-03-01T07:25:12;30.60;;;18.48;;
21030;SDS011;61072;47.808;7.636;2023-03-01T07:27:38;44.05;;;22.95;;
21030;SDS011;61072;47.808;7.636;2023-03-01T07:30:05;49.65;;;23.42;;
21030;SDS011;61072;47.808;7.636;2023-03-01T07:32:32;44.25;;;25.33;;
21030;SDS011;61072;47.808;7.636;2023-03-01T07:34:59;45.75;;;25.65;;
21030;SDS011;61072;47.808;7.636;2023-03-01T07:37:26;42.67;;;25.23;;
21030;SDS011;61072;47.808;7.636;2023-03-01T07:39:53;42.65;;;24.15;;
21030;SDS011;61072;47.808;7.636;2023-03-01T07:42:19;38.30;;;24.00;;
21030;SDS011;61072;47.808;7.636;2023-03-01T07:44:46;44.35;;;25.05;;
21030;SDS011;61072;47.808;7.636;2023-03-01T07:47:12;43.63;;;28.70;;
21030;SDS011;61072;47.808;7.636;2023-03-01T07:49:39;50.60;;;27.52;;
21030;SDS011;61072;47.808;7.636;2023-03-01T07:52:06;39.42;;;24.60;;
21030;SDS011;61072;47.808;7.636;2023-03-01T07:54:32;41.80;;;25.02;;
21030;SDS011;61072;47.808;7.636;2023-03-01T07:56:59;39.38;;;23.63;;
21030;SDS011;61072;47.808;7.636;2023-03-01T07:59:26;38.10;;;22.05;;
21030;SDS011;61072;47.808;7.636;2023-03-01T08:01:55;28.88;;;19.13;;
21030;SDS011;61072;47.808;7.636;2023-03-01T08:04:23;32.20;;;19.05;;
21030;SDS011;61072;47.808;7.636;2023-03-01T08:06:51;29.33;;;18.10;;
21030;SDS011;61072;47.808;7.636;2023-03-01T08:09:17;29.65;;;17.83;;
21030;SDS011;61072;47.808;7.636;2023-03-01T08:11:44;27.25;;;16.73;;
21030;SDS011;61072;47.808;7.636;2023-03-01T08:14:11;29.77;;;17.95;;
21030;SDS011;61072;47.808;7.636;2023-03-01T08:16:38;30.45;;;17.77;;
21030;SDS011;61072;47.808;7.636;2023-03-01T08:19:05;26.90;;;16.83;;
21030;SDS011;61072;47.808;7.636;2023-03-01T08:21:33;25.08;;;16.33;;
21030;SDS011;61072;47.808;7.636;2023-03-01T08:24:03;29.48;;;17.95;;
21030;SDS011;61072;47.808;7.636;2023-03-01T08:26:32;26.08;;;16.17;;
21030;SDS011;61072;47.808;7.636;2023-03-01T08:28:59;32.45;;;18.20;;
21030;SDS011;61072;47.808;7.636;2023-03-01T08:31:29;27.75;;;17.50;;
21030;SDS011;61072;47.808;7.636;2023-03-01T08:33:59;26.90;;;17.20;;
21030;SDS011;61072;47.808;7.636;2023-03-01T08:36:29;31.50;;;17.20;;
21030;SDS011;61072;47.808;7.636;2023-03-01T08:38:59;29.83;;;17.05;;
21030;SDS011;61072;47.808;7.636;2023-03-01T08:41:26;29.35;;;18.70;;
21030;SDS011;61072;47.808;7.636;2023-03-01T08:43:53;31.52;;;18.65;;
21030;SDS011;61072;47.808;7.636;2023-03-01T08:46:25;29.50;;;17.27;;
21030;SDS011;61072;47.808;7.636;2023-03-01T08:48:56;28.70;;;17.92;;
21030;SDS011;61072;47.808;7.636;2023-03-01T08:51:24;25.23;;;17.27;;
21030;SDS011;61072;47.808;7.636;2023-03-01T08:53:51;30.80;;;17.05;;
21030;SDS011;61072;47.808;7.636;2023-03-01T08:56:18;31.52;;;19.25;;
21030;SDS011;61072;47.808;7.636;2023-03-01T08:58:46;32.97;;;19.92;;
21030;SDS011;61072;47.808;7.636;2023-03-01T09:01:15;29.45;;;17.63;;
21030;SDS011;61072;47.808;7.636;2023-03-01T09:03:43;31.65;;;18.92;;
21030;SDS011;61072;47.808;7.636;2023-03-01T09:06:11;24.65;;;16.58;;
21030;SDS011;61072;47.808;7.636;2023-03-01T09:08:38;32.38;;;19.77;;
21030;SDS011;61072;47.808;7.636;2023-03-01T09:11:07;30.02;;;18.63;;
21030;SDS011;61072;47.808;7.636;2023-03-01T09:13:35;27.70;;;18.38;;
21030;SDS011;61072;47.808;7.636;2023-03-01T09:16:03;27.45;;;17.98;;
21030;SDS011;61072;47.808;7.636;2023-03-01T09:18:32;30.00;;;17.75;;
21030;SDS011;61072;47.808;7.636;2023-03-01T09:21:00;28.08;;;16.20;;
21030;SDS011;61072;47.808;7.636;2023-03-01T09:23:36;27.85;;;17.73;;
21030;SDS011;61072;47.808;7.636;2023-03-01T09:26:05;27.05;;;16.45;;
21030;SDS011;61072;47.808;7.636;2023-03-01T09:28:35;26.40;;;17.15;;
21030;SDS011;61072;47.808;7.636;2023-03-01T09:31:02;23.45;;;15.10;;
21030;SDS011;61072;47.808;7.636;2023-03-01T09:33:29;26.80;;;16.67;;
21030;SDS011;61072;47.808;7.636;2023-03-01T09:35:58;28.10;;;17.27;;
21030;SDS011;61072;47.808;7.636;2023-03-01T09:38:26;27.23;;;17.73;;
21030;SDS011;61072;47.808;7.636;2023-03-01T09:40:53;33.42;;;17.15;;
21030;SDS011;61072;47.808;7.636;2023-03-01T09:43:25;28.08;;;16.75;;
21030;SDS011;61072;47.808;7.636;2023-03-01T09:45:53;28.52;;;17.23;;
21030;SDS011;61072;47.808;7.636;2023-03-01T09:48:23;26.80;;;17.10;;
21030;SDS011;61072;47.808;7.636;2023-03-01T09:50:53;30.90;;;17.65;;
21030;SDS011;61072;47.808;7.636;2023-03-01T09:53:21;29.30;;;17.85;;
21030;SDS011;61072;47.808;7.636;2023-03-01T09:55:58;28.63;;;17.58;;
21030;SDS011;61072;47.808;7.636;2023-03-01T10:01:25;28.48;;;17.00;;
21030;SDS011;61072;47.808;7.636;2023-03-01T10:06:34;29.40;;;17.38;;
21030;SDS011;61072;47.808;7.636;2023-03-01T10:09:03;25.17;;;15.95;;
21030;SDS011;61072;47.808;7.636;2023-03-01T10:11:37;25.92;;;16.92;;
21030;SDS011;61072;47.808;7.636;2023-03-01T10:17:03;28.67;;;16.55;;
21030;SDS011;61072;47.808;7.636;2023-03-01T10:19:50;28.02;;;16.95;;
21030;SDS011;61072;47.808;7.636;2023-03-01T10:22:24;26.52;;;16.95;;
21030;SDS011;61072;47.808;7.636;2023-03-01T10:24:58;28.38;;;18.02;;
21030;SDS011;61072;47.808;7.636;2023-03-01T10:27:41;26.52;;;17.45;;
21030;SDS011;61072;47.808;7.636;2023-03-01T10:30:17;27.50;;;17.10;;
21030;SDS011;61072;47.808;7.636;2023-03-01T10:32:47;24.98;;;15.77;;
21030;SDS011;61072;47.808;7.636;2023-03-01T10:38:03;25.83;;;16.15;;
21030;SDS011;61072;47.808;7.636;2023-03-01T10:40:33;25.73;;;16.60;;
21030;SDS011;61072;47.808;7.636;2023-03-01T10:43:02;28.45;;;16.45;;
21030;SDS011;61072;47.808;7.636;2023-03-01T10:45:38;28.73;;;17.23;;
21030;SDS011;61072;47.808;7.636;2023-03-01T10:48:23;29.23;;;15.73;;
21030;SDS011;61072;47.808;7.636;2023-03-01T10:53:26;28.10;;;18.05;;
21030;SDS011;61072;47.808;7.636;2023-03-01T10:56:06;27.10;;;16.83;;
21030;SDS011;61072;47.808;7.636;2023-03-01T10:58:36;27.85;;;16.23;;
21030;SDS011;61072;47.808;7.636;2023-03-01T11:03:43;25.80;;;16.20;;
21030;SDS011;61072;47.808;7.636;2023-03-01T11:08:43;28.08;;;17.30;;
21030;SDS011;61072;47.808;7.636;2023-03-01T11:11:26;28.98;;;18.45;;
21030;SDS011;61072;47.808;7.636;2023-03-01T11:14:07;30.20;;;17.45;;
21030;SDS011;61072;47.808;7.636;2023-03-01T11:17:00;27.30;;;18.42;;
21030;SDS011;61072;47.808;7.636;2023-03-01T11:19:31;27.42;;;17.73;;
21030;SDS011;61072;47.808;7.636;2023-03-01T11:22:17;30.42;;;17.75;;
21030;SDS011;61072;47.808;7.636;2023-03-01T11:24:47;26.88;;;18.08;;
21030;SDS011;61072;47.808;7.636;2023-03-01T11:27:36;27.48;;;17.48;;
21030;SDS011;61072;47.808;7.636;2023-03-01T11:39:25;31.52;;;18.85;;
21030;SDS011;61072;47.808;7.636;2023-03-01T11:42:10;29.25;;;18.77;;
21030;SDS011;61072;47.808;7.636;2023-03-01T11:44:44;26.70;;;16.80;;
21030;SDS011;61072;47.808;7.636;2023-03-01T11:47:38;28.63;;;17.70;;
21030;SDS011;61072;47.808;7.636;2023-03-01T12:09:02;30.73;;;17.85;;
21030;SDS011;61072;47.808;7.636;2023-03-01T12:14:39;28.67;;;17.40;;
21030;SDS011;61072;47.808;7.636;2023-03-01T12:17:29;29.30;;;17.80;;
21030;SDS011;61072;47.808;7.636;2023-03-01T12:20:06;27.73;;;16.65;;
21030;SDS011;61072;47.808;7.636;2023-03-01T12:22:46;27.00;;;16.67;;
21030;SDS011;61072;47.808;7.636;2023-03-01T12:27:50;27.77;;;17.13;;
21030;SDS011;61072;47.808;7.636;2023-03-01T12:42:17;27.95;;;17.98;;
21030;SDS011;61072;47.808;7.636;2023-03-01T12:44:53;26.77;;;16.65;;
21030;SDS011;61072;47.808;7.636;2023-03-01T12:47:58;27.30;;;16.25;;
21030;SDS011;61072;47.808;7.636;2023-03-01T12:50:31;28.25;;;17.73;;
21030;SDS011;61072;47.808;7.636;2023-03-01T12:53:07;24.00;;;16.63;;
21030;SDS011;61072;47.808;7.636;2023-03-01T12:55:47;26.00;;;16.55;;
21030;SDS011;61072;47.808;7.636;2023-03-01T12:58:32;27.80;;;18.00;;
21030;SDS011;61072;47.808;7.636;2023-03-01T13:04:13;24.85;;;17.10;;
21030;SDS011;61072;47.808;7.636;2023-03-01T13:09:34;27.08;;;18.15;;
21030;SDS011;61072;47.808;7.636;2023-03-01T13:18:01;28.33;;;17.88;;
21030;SDS011;61072;47.808;7.636;2023-03-01T13:20:57;25.88;;;16.63;;
21030;SDS011;61072;47.808;7.636;2023-03-01T13:23:26;30.38;;;16.83;;
21030;SDS011;61072;47.808;7.636;2023-03-01T13:33:57;27.35;;;16.92;;
21030;SDS011;61072;47.808;7.636;2023-03-01T13:39:04;27.42;;;17.55;;
21030;SDS011;61072;47.808;7.636;2023-03-01T13:41:53;24.80;;;16.33;;
21030;SDS011;61072;47.808;7.636;2023-03-01T13:44:24;25.85;;;16.75;;
21030;SDS011;61072;47.808;7.636;2023-03-01T13:47:08;25.00;;;16.33;;
21030;SDS011;61072;47.808;7.636;2023-03-01T13:52:34;27.83;;;16.92;;
21030;SDS011;61072;47.808;7.636;2023-03-01T13:55:24;23.30;;;16.98;;
21030;SDS011;61072;47.808;7.636;2023-03-01T14:01:21;24.13;;;16.05;;
21030;SDS011;61072;47.808;7.636;2023-03-01T14:03:54;25.40;;;16.95;;
21030;SDS011;61072;47.808;7.636;2023-03-01T14:06:23;25.08;;;16.25;;
21030;SDS011;61072;47.808;7.636;2023-03-01T14:09:00;24.83;;;16.65;;
21030;SDS011;61072;47.808;7.636;2023-03-01T14:17:19;29.23;;;16.73;;
21030;SDS011;61072;47.808;7.636;2023-03-01T14:20:21;23.25;;;15.38;;
21030;SDS011;61072;47.808;7.636;2023-03-01T14:22:57;22.17;;;16.33;;
21030;SDS011;61072;47.808;7.636;2023-03-01T14:25:34;26.42;;;16.75;;
21030;SDS011;61072;47.808;7.636;2023-03-01T14:30:49;24.33;;;16.38;;
21030;SDS011;61072;47.808;7.636;2023-03-01T14:33:19;24.70;;;17.27;;
21030;SDS011;61072;47.808;7.636;2023-03-01T14:36:05;28.90;;;17.40;;
21030;SDS011;61072;47.808;7.636;2023-03-01T14:38:43;27.75;;;18.00;;
21030;SDS011;61072;47.808;7.636;2023-03-01T14:43:55;27.35;;;18.02;;
21030;SDS011;61072;47.808;7.636;2023-03-01T14:49:36;30.65;;;16.98;;
21030;SDS011;61072;47.808;7.636;2023-03-01T14:52:01;26.67;;;16.98;;
21030;SDS011;61072;47.808;7.636;2023-03-01T14:54:43;25.15;;;16.58;;
21030;SDS011;61072;47.808;7.636;2023-03-01T14:57:14;25.15;;;15.95;;
21030;SDS011;61072;47.808;7.636;2023-03-01T14:59:43;26.02;;;17.65;;
21030;SDS011;61072;47.808;7.636;2023-03-01T15:02:15;26.67;;;17.92;;
21030;SDS011;61072;47.808;7.636;2023-03-01T15:04:46;26.20;;;17.20;;
21030;SDS011;61072;47.808;7.636;2023-03-01T15:07:14;26.20;;;17.73;;
21030;SDS011;61072;47.808;7.636;2023-03-01T15:09:42;26.98;;;16.75;;
21030;SDS011;61072;47.808;7.636;2023-03-01T15:14:54;32.10;;;18.90;;
21030;SDS011;61072;47.808;7.636;2023-03-01T15:17:33;26.45;;;17.42;;
21030;SDS011;61072;47.808;7.636;2023-03-01T15:20:03;30.67;;;17.98;;
21030;SDS011;61072;47.808;7.636;2023-03-01T15:22:32;28.67;;;18.00;;
21030;SDS011;61072;47.808;7.636;2023-03-01T15:25:00;27.58;;;17.70;;
21030;SDS011;61072;47.808;7.636;2023-03-01T15:27:27;30.10;;;18.13;;
21030;SDS011;61072;47.808;7.636;2023-03-01T15:29:58;27.98;;;17.45;;
21030;SDS011;61072;47.808;7.636;2023-03-01T15:32:33;27.48;;;17.60;;
21030;SDS011;61072;47.808;7.636;2023-03-01T15:40:54;25.88;;;17.38;;
21030;SDS011;61072;47.808;7.636;2023-03-01T15:48:47;28.38;;;18.10;;
21030;SDS011;61072;47.808;7.636;2023-03-01T15:51:16;28.48;;;17.73;;
21030;SDS011;61072;47.808;7.636;2023-03-01T15:53:48;25.80;;;16.42;;
21030;SDS011;61072;47.808;7.636;2023-03-01T15:56:19;29.75;;;18.90;;
21030;SDS011;61072;47.808;7.636;2023-03-01T15:58:46;31.17;;;17.92;;
21030;SDS011;61072;47.808;7.636;2023-03-01T16:01:14;30.33;;;17.42;;
21030;SDS011;61072;47.808;7.636;2023-03-01T16:03:45;30.48;;;18.92;;
21030;SDS011;61072;47.808;7.636;2023-03-01T16:06:12;29.63;;;17.65;;
21030;SDS011;61072;47.808;7.636;2023-03-01T16:08:39;33.80;;;19.27;;
21030;SDS011;61072;47.808;7.636;2023-03-01T16:11:17;28.85;;;17.58;;
21030;SDS011;61072;47.808;7.636;2023-03-01T16:13:45;29.15;;;17.92;;
21030;SDS011;61072;47.808;7.636;2023-03-01T16:16:13;30.63;;;17.92;;
21030;SDS011;61072;47.808;7.636;2023-03-01T16:18:43;28.77;;;18.27;;
21030;SDS011;61072;47.808;7.636;2023-03-01T16:21:21;26.38;;;17.65;;
21030;SDS011;61072;47.808;7.636;2023-03-01T16:23:49;28.92;;;16.98;;
21030;SDS011;61072;47.808;7.636;2023-03-01T16:26:17;26.65;;;17.17;;
21030;SDS011;61072;47.808;7.636;2023-03-01T16:28:46;29.63;;;18.55;;
21030;SDS011;61072;47.808;7.636;2023-03-01T16:31:16;29.55;;;18.55;;
21030;SDS011;61072;47.808;7.636;2023-03-01T16:33:45;28.73;;;18.23;;
21030;SDS011;61072;47.808;7.636;2023-03-01T16:36:19;32.92;;;18.63;;
21030;SDS011;61072;47.808;7.636;2023-03-01T16:38:46;30.85;;;17.45;;
21030;SDS011;61072;47.808;7.636;2023-03-01T16:41:15;28.17;;;16.98;;
21030;SDS011;61072;47.808;7.636;2023-03-01T16:43:42;28.63;;;17.40;;
21030;SDS011;61072;47.808;7.636;2023-03-01T16:46:16;30.95;;;19.77;;
21030;SDS011;61072;47.808;7.636;2023-03-01T16:48:49;30.85;;;18.38;;
21030;SDS011;61072;47.808;7.636;2023-03-01T16:51:16;28.58;;;17.73;;